Time;durP1;ratioP1;P1;durP2;ratioP2;P2;SDS_P1;SDS_P2;PMS_P1;PMS_P2;Temp;Humidity;BMP_temperature;BMP_pressure;BME280_temperature;BME280_humidity;BME280_pressure;Samples;Min_cycle;Max_cycle;Signal;HPM_P1;HPM_P2
2024/01/31 00:01:50;;;;;;;;;;;;;;;18.14;58.63;103080.91;7405819;19;1514;-74
2024/01/31 00:04:20;;;;;;;;;;;;;;;18.16;58.61;103087.03;7403496;19;1882;-73
2024/01/31 00:06:50;;;;;;;;;;;;;;;18.17;58.55;103074.53;7399919;19;1679;-74
2024/01/31 00:09:19;;;;;;;;;;;;;;;18.11;58.71;103073.03;7409645;19;987;-75
2024/01/31 00:11:47;;;;;;;;;;;;;;;18.15;58.58;103063.91;7406159;19;1039;-83
2024/01/31 00:14:18;;;;;;;;;;;;;;;18.18;58.39;103085.16;7408122;19;1942;-83
2024/01/31 00:16:49;;;;;;;;;;;;;;;18.14;58.26;103070.19;7407698;19;1751;-83
2024/01/31 00:19:17;;;;;;;;;;;;;;;18.17;58.22;103083.44;7407760;19;1571;-83
2024/01/31 00:21:46;;;;;;;;;;;;;;;18.18;58.24;103084.28;7405961;19;1441;-83
2024/01/31 00:24:20;;;;;;;;;;;;;;;18.15;58.39;103074.63;7403681;19;1871;-83
2024/01/31 00:26:48;;;;;;;;;;;;;;;18.16;58.39;103079.00;7404099;19;1758;-83
2024/01/31 00:29:19;;;;;;;;;;;;;;;18.11;58.20;103066.81;7402990;19;1595;-83
2024/01/31 00:31:50;;;;;;;;;;;;;;;18.11;58.16;103077.53;7402481;19;1630;-83
2024/01/31 00:34:19;;;;;;;;;;;;;;;18.12;58.14;103065.84;7402279;19;1834;-84
2024/01/31 00:36:48;;;;;;;;;;;;;;;18.12;57.98;103066.72;7403191;19;1679;-83
2024/01/31 00:39:16;;;;;;;;;;;;;;;18.12;57.96;103077.41;7405515;19;1624;-83
2024/01/31 00:41:50;;;;;;;;;;;;;;;18.18;57.93;103053.03;7404189;19;1663;-83
2024/01/31 00:44:18;;;;;;;;;;;;;;;18.15;57.95;103057.69;7403802;19;1810;-83
2024/01/31 00:46:48;;;;;;;;;;;;;;;18.13;57.92;103065.78;7398928;19;1926;-82
2024/01/31 00:49:19;;;;;;;;;;;;;;;18.16;57.76;103072.78;7404319;19;1277;-83
2024/01/31 00:51:49;;;;;;;;;;;;;;;18.14;57.74;103074.69;7402508;19;1823;-82
2024/01/31 00:54:19;;;;;;;;;;;;;;;18.17;57.97;103055.81;7402503;19;1314;-82
2024/01/31 00:56:47;;;;;;;;;;;;;;;17.74;58.99;103047.94;7401151;19;1025;-82
2024/01/31 00:59:20;;;;;;;;;;;;;;;17.47;59.44;103050.97;7401117;19;1600;-83
2024/01/31 01:01:48;;;;;;;;;;;;;;;17.27;59.87;103064.38;7401446;19;1656;-82
2024/01/31 01:04:19;;;;;;;;;;;;;;;17.17;60.48;103076.38;7402272;19;1871;-82
2024/01/31 01:06:48;;;;;;;;;;;;;;;17.40;59.81;103065.53;7403342;19;1684;-82
2024/01/31 01:09:16;;;;;;;;;;;;;;;17.79;58.99;103062.00;7403822;19;1616;-82
2024/01/31 01:11:47;;;;;;;;;;;;;;;18.09;58.13;103058.84;7404987;19;1012;-82
2024/01/31 01:14:15;;;;;;;;;;;;;;;18.23;57.67;103053.69;7404014;19;2041;-82
2024/01/31 01:16:43;;;;;;;;;;;;;;;18.23;57.61;103050.16;7400954;19;1486;-82
2024/01/31 01:19:12;;;;;;;;;;;;;;;18.16;57.60;103044.19;7402991;19;1572;-83
2024/01/31 01:21:43;;;;;;;;;;;;;;;18.15;57.66;103047.84;7404460;19;1462;-83
2024/01/31 01:24:16;;;;;;;;;;;;;;;18.11;57.65;103046.25;7401233;19;1859;-82
2024/01/31 01:26:46;;;;;;;;;;;;;;;18.14;57.66;103046.09;7402752;19;2144;-83
2024/01/31 01:29:15;;;;;;;;;;;;;;;18.08;57.56;103035.66;7401563;19;1576;-83
2024/01/31 01:31:44;;;;;;;;;;;;;;;18.08;57.64;103036.56;7403486;19;1449;-82
2024/01/31 01:34:13;;;;;;;;;;;;;;;18.11;57.43;103045.38;7401538;19;1643;-82
2024/01/31 01:36:44;;;;;;;;;;;;;;;18.07;57.53;103031.28;7404074;19;1671;-81
2024/01/31 01:39:13;;;;;;;;;;;;;;;18.08;57.60;103041.91;7401997;19;1652;-83
2024/01/31 01:41:41;;;;;;;;;;;;;;;18.05;57.65;103017.97;7401201;19;1409;-82
2024/01/31 01:44:14;;;;;;;;;;;;;;;18.05;57.51;103038.50;7400389;19;1850;-83
2024/01/31 01:46:43;;;;;;;;;;;;;;;18.14;57.27;103037.19;7399437;19;1238;-81
2024/01/31 01:49:15;;;;;;;;;;;;;;;18.11;57.49;103040.91;7402564;19;1513;-82
2024/01/31 01:51:46;;;;;;;;;;;;;;;18.03;57.43;103035.03;7399981;19;1482;-82
2024/01/31 01:54:17;;;;;;;;;;;;;;;18.07;57.25;103039.31;7398714;19;1478;-82
2024/01/31 01:56:48;;;;;;;;;;;;;;;18.06;57.40;103013.47;7400098;19;1027;-73
2024/01/31 01:59:19;;;;;;;;;;;;;;;18.04;57.55;103010.00;7396951;19;968;-73
2024/01/31 02:01:48;;;;;;;;;;;;;;;18.03;57.45;103016.31;7399415;19;1874;-74
2024/01/31 02:04:19;;;;;;;;;;;;;;;18.01;57.27;103011.00;7399656;19;1848;-73
2024/01/31 02:06:51;;;;;;;;;;;;;;;18.03;57.35;103027.00;7396693;19;1438;-74
2024/01/31 02:09:19;;;;;;;;;;;;;;;18.03;57.38;103005.59;7397839;19;1439;-73
2024/01/31 02:11:48;;;;;;;;;;;;;;;18.05;57.36;103020.63;7398520;19;1521;-73
2024/01/31 02:14:16;;;;;;;;;;;;;;;18.03;57.18;102995.75;7400243;19;1798;-73
2024/01/31 02:16:46;;;;;;;;;;;;;;;18.00;57.38;103001.22;7399232;19;1572;-73
2024/01/31 02:19:16;;;;;;;;;;;;;;;18.04;57.24;102985.91;7399633;19;1619;-73
2024/01/31 02:21:46;;;;;;;;;;;;;;;18.04;57.13;102991.25;7399079;19;1683;-82
2024/01/31 02:24:18;;;;;;;;;;;;;;;18.04;57.09;102992.09;7401304;19;1843;-83
2024/01/31 02:26:49;;;;;;;;;;;;;;;18.06;56.97;102997.41;7400565;19;1694;-82
2024/01/31 02:29:17;;;;;;;;;;;;;;;18.10;56.91;103007.00;7402811;19;1711;-82
2024/01/31 02:31:46;;;;;;;;;;;;;;;18.06;56.96;103000.06;7402039;19;1762;-83
2024/01/31 02:34:15;;;;;;;;;;;;;;;18.07;57.11;103007.19;7399554;19;1537;-83
2024/01/31 02:36:43;;;;;;;;;;;;;;;18.02;56.82;102985.09;7400492;19;1783;-81
2024/01/31 02:39:12;;;;;;;;;;;;;;;18.04;57.03;102986.75;7399725;19;1635;-82
2024/01/31 02:41:43;;;;;;;;;;;;;;;17.99;56.94;102983.44;7400224;19;1762;-83
2024/01/31 02:44:21;;;;;;;;;;;;;;;18.04;56.79;102978.72;7398401;19;1443;-82
2024/01/31 02:46:50;;;;;;;;;;;;;;;18.04;56.94;102991.25;7397282;19;1397;-82
2024/01/31 02:49:18;;;;;;;;;;;;;;;18.07;56.81;102980.41;7399398;19;1079;-81
2024/01/31 02:51:47;;;;;;;;;;;;;;;18.02;56.69;102977.06;7398860;19;1778;-82
2024/01/31 02:54:16;;;;;;;;;;;;;;;18.07;56.88;102981.25;7397907;19;1520;-82
2024/01/31 02:56:47;;;;;;;;;;;;;;;17.98;56.89;102970.13;7398309;19;1918;-82
2024/01/31 02:59:15;;;;;;;;;;;;;;;17.97;57.02;102976.44;7399263;19;1798;-82
2024/01/31 03:01:47;;;;;;;;;;;;;;;17.98;57.04;102987.06;7399659;19;1365;-81
2024/01/31 03:04:16;;;;;;;;;;;;;;;18.07;56.93;102985.75;7397384;19;1597;-83
2024/01/31 03:06:44;;;;;;;;;;;;;;;17.97;57.09;102979.97;7397768;19;1848;-82
2024/01/31 03:09:13;;;;;;;;;;;;;;;17.96;57.09;102977.38;7397925;19;1734;-82
2024/01/31 03:11:41;;;;;;;;;;;;;;;18.00;57.07;102968.25;7396297;19;1565;-73
2024/01/31 03:14:12;;;;;;;;;;;;;;;17.98;57.01;102988.88;7397155;19;1906;-82
2024/01/31 03:16:45;;;;;;;;;;;;;;;17.97;57.22;102984.47;7399767;19;1532;-82
2024/01/31 03:19:15;;;;;;;;;;;;;;;17.99;56.89;102979.91;7399959;19;1437;-82
2024/01/31 03:21:43;;;;;;;;;;;;;;;18.00;56.85;102963.75;7396857;19;1854;-82
2024/01/31 03:24:12;;;;;;;;;;;;;;;18.02;56.61;102967.22;7397257;19;1698;-82
2024/01/31 03:26:40;;;;;;;;;;;;;;;18.02;56.69;102971.72;7396052;19;1843;-82
2024/01/31 03:29:31;;;;;;;;;;;;;;;17.99;56.79;102970.06;7399308;19;1672;-82
2024/01/31 03:32:02;;;;;;;;;;;;;;;18.04;56.54;102951.94;7395896;19;1029;-81
2024/01/31 03:34:36;;;;;;;;;;;;;;;18.01;56.51;102953.94;7397572;19;1931;-77
2024/01/31 03:37:05;;;;;;;;;;;;;;;17.98;56.73;102960.28;7398066;19;1839;-73
2024/01/31 03:39:34;;;;;;;;;;;;;;;17.96;56.76;102950.59;7394198;19;1760;-73
2024/01/31 03:42:02;;;;;;;;;;;;;;;18.00;56.48;102974.47;7395312;19;1815;-73
2024/01/31 03:44:31;;;;;;;;;;;;;;;17.95;56.59;102954.25;7396921;19;1283;-73
2024/01/31 03:47:02;;;;;;;;;;;;;;;17.99;56.40;102961.19;7395535;19;1632;-74
2024/01/31 03:49:31;;;;;;;;;;;;;;;18.01;56.38;102965.50;7395537;19;991;-73
2024/01/31 03:51:59;;;;;;;;;;;;;;;17.98;56.38;102960.28;7394989;19;1754;-74
2024/01/31 03:54:27;;;;;;;;;;;;;;;17.98;56.22;102954.06;7396245;19;1732;-74
2024/01/31 03:56:56;;;;;;;;;;;;;;;18.00;56.37;102957.53;7394374;19;1901;-74
2024/01/31 03:59:24;;;;;;;;;;;;;;;18.02;56.09;102959.19;7395942;19;1777;-73
2024/01/31 04:01:53;;;;;;;;;;;;;;;18.20;55.91;102960.09;7393720;19;1664;-74
2024/01/31 04:04:24;;;;;;;;;;;;;;;18.14;56.01;102962.22;7394541;19;1358;-74
2024/01/31 04:06:52;;;;;;;;;;;;;;;17.70;57.33;102961.59;7391481;19;1825;-73
2024/01/31 04:09:21;;;;;;;;;;;;;;;17.34;58.07;102947.28;7394903;19;1678;-74
2024/01/31 04:11:49;;;;;;;;;;;;;;;17.26;58.62;102951.19;7397618;19;1778;-74
2024/01/31 04:14:18;;;;;;;;;;;;;;;18.03;56.74;102944.00;7402087;19;1411;-73
2024/01/31 04:16:49;;;;;;;;;;;;;;;18.43;55.66;102961.63;7400528;19;1675;-73
2024/01/31 04:19:18;;;;;;;;;;;;;;;18.86;54.44;102953.19;7404274;19;1579;-74
2024/01/31 04:21:49;;;;;;;;;;;;;;;18.77;54.79;102945.59;7401914;19;1863;-74
2024/01/31 04:24:18;;;;;;;;;;;;;;;18.76;54.67;102951.91;7403172;19;1395;-73
2024/01/31 04:26:46;;;;;;;;;;;;;;;18.74;54.82;102957.38;7398018;19;1862;-73
2024/01/31 04:29:15;;;;;;;;;;;;;;;18.70;54.73;102953.09;7401819;19;1777;-73
2024/01/31 04:31:43;;;;;;;;;;;;;;;18.65;55.03;102961.38;7402488;19;1505;-74
2024/01/31 04:34:12;;;;;;;;;;;;;;;18.58;55.18;102959.97;7401797;19;1660;-73
2024/01/31 04:36:40;;;;;;;;;;;;;;;18.61;55.28;102953.59;7400036;19;1788;-74
2024/01/31 04:39:11;;;;;;;;;;;;;;;18.61;55.04;102948.22;7403100;19;1494;-73
2024/01/31 04:41:39;;;;;;;;;;;;;;;18.64;54.93;102946.25;7399512;19;1426;-73
2024/01/31 04:44:09;;;;;;;;;;;;;;;18.67;54.87;102946.06;7400454;19;1719;-74
2024/01/31 04:46:37;;;;;;;;;;;;;;;18.76;54.71;102954.56;7400080;19;1828;-74
2024/01/31 04:49:05;;;;;;;;;;;;;;;18.76;54.62;102957.25;7403382;19;1552;-74
2024/01/31 04:51:34;;;;;;;;;;;;;;;18.76;54.55;102963.50;7400492;19;1492;-74
2024/01/31 04:54:03;;;;;;;;;;;;;;;18.82;54.63;102962.31;7400860;19;1576;-74
2024/01/31 04:56:34;;;;;;;;;;;;;;;18.80;54.87;102966.91;7403143;19;1672;-74
2024/01/31 04:59:02;;;;;;;;;;;;;;;18.65;55.04;102966.72;7402658;19;1566;-74
2024/01/31 05:01:30;;;;;;;;;;;;;;;18.62;55.35;102960.66;7400069;19;1311;-74
2024/01/31 05:03:59;;;;;;;;;;;;;;;18.74;55.39;102970.78;7401455;19;1132;-74
2024/01/31 05:06:28;;;;;;;;;;;;;;;18.72;54.99;102969.09;7398470;19;1853;-73
2024/01/31 05:08:56;;;;;;;;;;;;;;;18.71;54.82;102962.88;7400806;19;2016;-73
2024/01/31 05:11:26;;;;;;;;;;;;;;;18.72;54.60;102982.50;7400963;19;1408;-73
2024/01/31 05:13:57;;;;;;;;;;;;;;;18.74;54.61;102969.88;7400228;19;1356;-74
2024/01/31 05:16:25;;;;;;;;;;;;;;;18.81;54.22;102972.19;7401208;19;1150;-73
2024/01/31 05:18:54;;;;;;;;;;;;;;;18.85;54.13;102979.13;7400950;19;1151;-74
2024/01/31 05:21:23;;;;;;;;;;;;;;;18.81;54.32;102990.97;7400279;19;1755;-73
2024/01/31 05:23:52;;;;;;;;;;;;;;;18.81;54.28;102982.91;7399533;19;1928;-73
2024/01/31 05:26:20;;;;;;;;;;;;;;;18.71;54.71;102980.78;7399639;19;1862;-73
2024/01/31 05:28:48;;;;;;;;;;;;;;;18.77;54.53;102985.81;7402219;19;976;-74
2024/01/31 05:31:20;;;;;;;;;;;;;;;18.91;54.34;102982.44;7399331;19;1326;-73
2024/01/31 05:33:49;;;;;;;;;;;;;;;18.84;53.79;102988.13;7399410;19;1564;-74
2024/01/31 05:36:18;;;;;;;;;;;;;;;18.85;53.97;102972.91;7399278;19;1609;-75
2024/01/31 05:38:47;;;;;;;;;;;;;;;18.95;53.90;102990.22;7400321;19;1140;-74
2024/01/31 05:41:17;;;;;;;;;;;;;;;19.00;53.68;102974.78;7397606;19;1391;-74
2024/01/31 05:43:45;;;;;;;;;;;;;;;18.96;53.91;102969.66;7398576;19;1306;-81
2024/01/31 05:46:15;;;;;;;;;;;;;;;18.96;54.15;102986.63;7399689;19;1883;-73
2024/01/31 05:48:47;;;;;;;;;;;;;;;19.04;54.02;102967.44;7398351;19;1275;-73
2024/01/31 05:51:15;;;;;;;;;;;;;;;19.03;54.05;102966.56;7395681;19;1909;-82
2024/01/31 05:53:44;;;;;;;;;;;;;;;18.88;54.00;102972.75;7398921;19;1490;-73
2024/01/31 05:56:15;;;;;;;;;;;;;;;18.87;54.12;102974.53;7398373;19;1484;-81
2024/01/31 05:58:44;;;;;;;;;;;;;;;18.67;53.81;102967.53;7401201;19;1743;-73
2024/01/31 06:01:13;;;;;;;;;;;;;;;18.53;54.13;102978.09;7399184;19;1307;-74
2024/01/31 06:03:41;;;;;;;;;;;;;;;18.64;53.94;102969.47;7397975;19;1486;-82
2024/01/31 06:06:12;;;;;;;;;;;;;;;18.83;53.68;102970.28;7398663;19;1830;-75
2024/01/31 06:08:40;;;;;;;;;;;;;;;18.95;53.56;102979.50;7401055;19;1754;-74
2024/01/31 06:11:09;;;;;;;;;;;;;;;18.95;53.97;102987.56;7400773;19;1310;-82
2024/01/31 06:13:38;;;;;;;;;;;;;;;18.98;54.00;102971.31;7400848;19;1081;-74
2024/01/31 06:16:07;;;;;;;;;;;;;;;19.02;53.65;102997.00;7399639;19;1532;-81
2024/01/31 06:18:37;;;;;;;;;;;;;;;19.19;53.18;102981.84;7276815;19;12561;-82
2024/01/31 06:21:06;;;;;;;;;;;;;;;19.17;53.06;102989.09;7399318;19;1291;-83
2024/01/31 06:23:37;;;;;;;;;;;;;;;19.19;53.20;102979.16;7399818;19;1255;-82
2024/01/31 06:26:06;;;;;;;;;;;;;;;19.24;53.08;102980.63;7397411;19;1854;-83
2024/01/31 06:28:38;;;;;;;;;;;;;;;19.28;53.17;102984.03;7400168;19;1389;-82
2024/01/31 06:31:14;;;;;;;;;;;;;;;19.29;53.23;102993.78;7399474;19;1453;-82
2024/01/31 06:33:46;;;;;;;;;;;;;;;19.31;53.12;102983.84;7395282;19;1410;-82
2024/01/31 06:36:15;;;;;;;;;;;;;;;19.21;53.56;102969.19;7399609;19;1728;-82
2024/01/31 06:38:46;;;;;;;;;;;;;;;19.12;54.09;102975.06;7399001;19;1740;-74
2024/01/31 06:41:15;;;;;;;;;;;;;;;19.07;54.08;102960.06;7396954;19;1474;-74
2024/01/31 06:43:43;;;;;;;;;;;;;;;19.00;54.21;102956.00;7395601;19;1496;-73
2024/01/31 06:46:14;;;;;;;;;;;;;;;19.03;54.47;102958.50;7385581;19;1841;-76
2024/01/31 06:48:42;;;;;;;;;;;;;;;18.91;54.33;102956.50;7397106;19;1426;-77
2024/01/31 06:51:11;;;;;;;;;;;;;;;18.96;54.36;102962.50;7395670;19;1516;-76
2024/01/31 06:53:40;;;;;;;;;;;;;;;19.08;54.10;102971.69;7394489;19;1429;-77
2024/01/31 06:56:19;;;;;;;;;;;;;;;19.11;54.26;102958.09;7396581;19;1382;-76
2024/01/31 06:58:48;;;;;;;;;;;;;;;19.18;53.89;102964.00;7395294;19;1388;-77
2024/01/31 07:01:16;;;;;;;;;;;;;;;19.18;54.02;102969.34;7398100;19;1541;-76
2024/01/31 07:03:45;;;;;;;;;;;;;;;19.08;54.20;102969.88;7400986;19;1554;-75
2024/01/31 07:06:13;;;;;;;;;;;;;;;18.57;55.03;102976.97;7399994;19;1841;-75
2024/01/31 07:08:42;;;;;;;;;;;;;;;18.20;55.41;102970.78;7397996;19;1649;-76
2024/01/31 07:11:11;;;;;;;;;;;;;;;17.92;56.31;102981.16;7392109;19;1226;-76
2024/01/31 07:13:42;;;;;;;;;;;;;;;17.84;57.65;102970.81;7395439;19;1696;-76
2024/01/31 07:16:12;;;;;;;;;;;;;;;18.46;56.04;102965.94;7398002;19;1440;-76
2024/01/31 07:18:42;;;;;;;;;;;;;;;18.65;55.53;102964.06;7399127;19;1703;-85
2024/01/31 07:21:11;;;;;;;;;;;;;;;18.96;54.66;102937.47;7401053;19;1542;-82
2024/01/31 07:23:40;;;;;;;;;;;;;;;19.10;54.42;102955.50;7398926;19;1341;-82
2024/01/31 07:26:11;;;;;;;;;;;;;;;18.61;55.30;102948.22;7397221;19;1857;-81
2024/01/31 07:28:45;;;;;;;;;;;;;;;18.21;56.27;102945.75;7396300;19;1417;-81
2024/01/31 07:31:15;;;;;;;;;;;;;;;18.28;56.00;102936.50;7397414;19;1465;-81
2024/01/31 07:33:48;;;;;;;;;;;;;;;18.56;55.40;102948.47;7398368;19;1517;-73
2024/01/31 07:36:16;;;;;;;;;;;;;;;18.87;54.82;102952.25;7394471;19;1484;-81
2024/01/31 07:38:53;;;;;;;;;;;;;;;19.04;54.22;102935.25;7399075;19;1565;-81
2024/01/31 07:41:22;;;;;;;;;;;;;;;19.17;54.04;102946.19;7398986;19;1205;-81
2024/01/31 07:43:55;;;;;;;;;;;;;;;19.10;54.28;102932.25;7389027;19;1518;-74
2024/01/31 07:46:23;;;;;;;;;;;;;;;19.02;54.54;102948.75;7387939;19;1842;-74
2024/01/31 07:48:55;;;;;;;;;;;;;;;18.85;54.68;102925.50;7404372;19;1586;-72
2024/01/31 07:51:23;;;;;;;;;;;;;;;19.07;54.14;102927.91;7405127;19;1421;-74
2024/01/31 07:53:51;;;;;;;;;;;;;;;19.03;54.27;102937.06;7404026;19;1317;-74
2024/01/31 07:56:20;;;;;;;;;;;;;;;19.07;54.39;102921.69;7401771;19;1430;-77
2024/01/31 07:58:50;;;;;;;;;;;;;;;19.25;53.94;102919.81;7402610;19;1279;-76
2024/01/31 08:01:21;;;;;;;;;;;;;;;19.26;54.07;102926.91;7402921;19;1055;-76
2024/01/31 08:03:49;;;;;;;;;;;;;;;19.27;54.31;102910.72;7401586;19;1566;-76
2024/01/31 08:06:19;;;;;;;;;;;;;;;19.30;54.39;102909.69;7399519;19;1852;-76
2024/01/31 08:08:48;;;;;;;;;;;;;;;19.33;54.35;102911.34;7405153;19;1614;-77
2024/01/31 08:11:16;;;;;;;;;;;;;;;19.41;54.55;102909.09;7400495;19;1478;-85
2024/01/31 08:13:45;;;;;;;;;;;;;;;19.32;54.01;102909.59;7403827;19;1635;-85
2024/01/31 08:16:15;;;;;;;;;;;;;;;19.36;54.11;102909.34;7404139;19;1398;-76
2024/01/31 08:18:46;;;;;;;;;;;;;;;19.38;54.36;102910.13;7403217;19;1599;-83
2024/01/31 08:21:14;;;;;;;;;;;;;;;19.46;54.32;102890.91;7402571;19;1950;-76
2024/01/31 08:23:43;;;;;;;;;;;;;;;19.44;54.81;102888.31;7396605;19;1383;-76
2024/01/31 08:26:17;;;;;;;;;;;;;;;19.45;54.81;102898.09;7399581;19;1856;-77
2024/01/31 08:28:46;;;;;;;;;;;;;;;19.52;54.76;102903.09;7401547;19;1513;-84
2024/01/31 08:31:14;;;;;;;;;;;;;;;19.59;54.53;102891.94;7403372;19;1554;-85
2024/01/31 08:33:47;;;;;;;;;;;;;;;19.64;54.40;102897.06;7405414;19;1230;-84
2024/01/31 08:36:17;;;;;;;;;;;;;;;19.60;54.43;102890.13;7401656;19;1717;-83
2024/01/31 08:38:46;;;;;;;;;;;;;;;19.28;55.51;102880.25;7405448;19;1226;-85
2024/01/31 08:41:14;;;;;;;;;;;;;;;18.92;56.46;102899.25;7402822;19;1468;-82
2024/01/31 08:43:43;;;;;;;;;;;;;;;18.66;56.85;102888.09;7398548;19;1664;-81
2024/01/31 08:46:11;;;;;;;;;;;;;;;19.06;55.83;102893.16;7387731;19;1604;-82
2024/01/31 08:48:52;;;;;;;;;;;;;;;19.46;54.75;102897.16;7397113;19;1886;-82
2024/01/31 08:51:21;;;;;;;;;;;;;;;19.64;54.33;102899.75;7399949;19;1442;-82
2024/01/31 08:53:49;;;;;;;;;;;;;;;19.64;54.53;102899.75;7398596;19;1648;-82
2024/01/31 08:56:17;;;;;;;;;;;;;;;19.48;54.94;102889.88;7396075;19;1518;-82
2024/01/31 08:58:49;;;;;;;;;;;;;;;19.13;56.02;102893.66;7400068;19;1495;-82
2024/01/31 09:01:17;;;;;;;;;;;;;;;18.78;57.42;102886.56;7399417;19;1659;-82
2024/01/31 09:03:46;;;;;;;;;;;;;;;18.81;57.36;102881.06;7400473;19;1458;-74
2024/01/31 09:06:17;;;;;;;;;;;;;;;19.30;55.88;102877.50;7399807;19;1627;-74
2024/01/31 09:08:46;;;;;;;;;;;;;;;19.62;56.18;102869.44;7398334;19;1853;-74
2024/01/31 09:11:14;;;;;;;;;;;;;;;19.27;57.47;102869.63;7401202;19;1536;-74
2024/01/31 09:13:43;;;;;;;;;;;;;;;18.85;58.58;102871.03;7397249;19;1490;-73
2024/01/31 09:16:12;;;;;;;;;;;;;;;18.98;58.20;102874.78;7399624;19;1403;-73
2024/01/31 09:18:41;;;;;;;;;;;;;;;19.43;56.94;102870.47;7400390;19;1278;-73
2024/01/31 09:21:09;;;;;;;;;;;;;;;19.27;57.62;102865.09;7398921;19;1480;-73
2024/01/31 09:23:43;;;;;;;;;;;;;;;18.91;58.73;102849.25;7397681;19;1423;-74
2024/01/31 09:26:12;;;;;;;;;;;;;;;18.16;57.25;102856.75;7398160;19;1501;-73
2024/01/31 09:28:40;;;;;;;;;;;;;;;18.54;54.64;102844.97;7396535;19;1871;-72
2024/01/31 09:31:09;;;;;;;;;;;;;;;19.00;54.18;102837.13;7398338;19;1723;-72
2024/01/31 09:33:40;;;;;;;;;;;;;;;19.11;54.40;102849.97;7396705;19;1379;-73
2024/01/31 09:36:09;;;;;;;;;;;;;;;18.83;55.64;102854.16;7399913;19;1263;-73
2024/01/31 09:38:40;;;;;;;;;;;;;;;18.54;56.62;102844.97;7394357;19;1860;-73
2024/01/31 09:41:08;;;;;;;;;;;;;;;18.90;55.60;102852.00;7397833;19;1613;-73
2024/01/31 09:43:37;;;;;;;;;;;;;;;19.30;54.88;102813.13;7398462;19;1572;-81
2024/01/31 09:46:06;;;;;;;;;;;;;;;19.54;54.55;102826.94;7399299;19;1243;-81
2024/01/31 09:48:35;;;;;;;;;;;;;;;19.45;54.88;102835.50;7392968;19;1849;-80
2024/01/31 09:51:04;;;;;;;;;;;;;;;18.86;55.97;102825.38;7397683;19;1485;-82
2024/01/31 09:53:36;;;;;;;;;;;;;;;18.61;57.04;102838.34;7399573;19;1705;-81
2024/01/31 09:56:07;;;;;;;;;;;;;;;18.91;56.06;102803.69;7399003;19;1779;-81
2024/01/31 09:58:36;;;;;;;;;;;;;;;19.29;55.62;102814.06;7398719;19;1761;-82
2024/01/31 10:01:06;;;;;;;;;;;;;;;19.59;54.63;102822.16;7396948;19;1519;-74
2024/01/31 10:03:34;;;;;;;;;;;;;;;19.77;54.47;102817.56;7397387;19;1638;-74
2024/01/31 10:06:05;;;;;;;;;;;;;;;19.61;54.64;102811.34;7397398;19;1455;-74
2024/01/31 10:08:33;;;;;;;;;;;;;;;19.04;55.98;102801.19;7392450;19;1858;-73
2024/01/31 10:11:02;;;;;;;;;;;;;;;18.63;56.91;102793.59;7397420;19;1835;-80
2024/01/31 10:13:33;;;;;;;;;;;;;;;18.76;56.66;102783.03;7397829;19;1541;-81
2024/01/31 10:16:01;;;;;;;;;;;;;;;19.13;56.08;102789.06;7397155;19;1489;-80
2024/01/31 10:18:30;;;;;;;;;;;;;;;19.51;54.75;102777.94;7398649;19;1505;-82
2024/01/31 10:20:59;;;;;;;;;;;;;;;19.69;54.34;102771.47;7397532;19;1246;-81
2024/01/31 10:23:28;;;;;;;;;;;;;;;19.58;54.20;102773.97;7397841;19;1204;-81
2024/01/31 10:25:56;;;;;;;;;;;;;;;19.22;55.46;102783.19;7393895;19;1235;-80
2024/01/31 10:28:25;;;;;;;;;;;;;;;18.84;56.25;102780.81;7392861;19;1839;-82
2024/01/31 10:30:56;;;;;;;;;;;;;;;18.66;56.63;102775.53;7393228;19;1599;-74
2024/01/31 10:33:25;;;;;;;;;;;;;;;18.99;55.69;102755.00;7392269;19;1565;-81
2024/01/31 10:35:54;;;;;;;;;;;;;;;19.34;54.84;102755.66;7395808;19;1307;-80
2024/01/31 10:38:22;;;;;;;;;;;;;;;19.51;54.71;102772.56;7391731;19;1448;-80
2024/01/31 10:40:52;;;;;;;;;;;;;;;19.18;55.65;102770.88;7389311;19;1549;-74
2024/01/31 10:43:21;;;;;;;;;;;;;;;18.95;56.22;102748.94;7389271;19;1655;-73
2024/01/31 10:45:50;;;;;;;;;;;;;;;18.96;56.31;102745.31;7390116;19;1518;-74
2024/01/31 10:48:21;;;;;;;;;;;;;;;19.57;54.69;102748.06;7387229;19;1850;-74
2024/01/31 10:50:49;;;;;;;;;;;;;;;19.60;54.55;102745.22;7388863;19;1653;-73
2024/01/31 10:53:19;;;;;;;;;;;;;;;19.19;55.79;102743.13;7388897;19;1493;-73
2024/01/31 10:55:48;;;;;;;;;;;;;;;18.86;56.54;102739.59;7389583;19;1501;-73
2024/01/31 10:58:17;;;;;;;;;;;;;;;18.94;56.38;102749.00;7388380;19;1448;-73
2024/01/31 11:00:48;;;;;;;;;;;;;;;19.20;54.76;102726.06;7391968;19;1851;-80
2024/01/31 11:03:18;;;;;;;;;;;;;;;19.50;54.36;102711.78;7390808;19;1844;-80
2024/01/31 11:05:51;;;;;;;;;;;;;;;19.39;54.70;102729.41;7391252;19;1531;-80
2024/01/31 11:08:20;;;;;;;;;;;;;;;19.00;55.67;102719.16;7390349;19;1939;-80
2024/01/31 11:10:49;;;;;;;;;;;;;;;18.86;56.51;102726.19;7394013;19;1972;-80
2024/01/31 11:13:18;;;;;;;;;;;;;;;19.06;56.15;102727.75;7386497;19;1565;-83
2024/01/31 11:15:47;;;;;;;;;;;;;;;19.44;55.04;102713.91;7396953;19;1262;-83
2024/01/31 11:18:16;;;;;;;;;;;;;;;19.71;54.57;102715.03;7392467;19;1506;-86
2024/01/31 11:20:47;;;;;;;;;;;;;;;19.38;54.95;102703.53;7398478;19;1466;-82
2024/01/31 11:23:19;;;;;;;;;;;;;;;19.01;55.94;102716.41;7402383;19;1602;-84
2024/01/31 11:25:50;;;;;;;;;;;;;;;18.85;56.54;102718.25;7402676;19;1302;-84
2024/01/31 11:28:19;;;;;;;;;;;;;;;19.15;55.48;102717.44;7399914;19;1837;-83
2024/01/31 11:30:51;;;;;;;;;;;;;;;19.44;55.11;102697.81;7404693;19;1525;-84
2024/01/31 11:33:20;;;;;;;;;;;;;;;19.56;54.95;102679.25;7400783;19;1444;-83
2024/01/31 11:35:48;;;;;;;;;;;;;;;19.37;55.81;102690.22;7398938;19;1494;-84
2024/01/31 11:38:21;;;;;;;;;;;;;;;19.11;56.62;102683.72;7397361;19;1742;-83
2024/01/31 11:40:51;;;;;;;;;;;;;;;18.90;57.08;102684.00;7402310;19;1385;-83
2024/01/31 11:43:21;;;;;;;;;;;;;;;18.99;57.15;102688.81;7399848;19;1457;-83
2024/01/31 11:45:50;;;;;;;;;;;;;;;19.55;56.58;102674.84;7399842;19;1250;-83
2024/01/31 11:48:19;;;;;;;;;;;;;;;19.68;55.85;102673.13;7397719;19;1900;-84
2024/01/31 11:50:47;;;;;;;;;;;;;;;19.42;56.48;102680.09;7402595;19;1730;-81
2024/01/31 11:53:16;;;;;;;;;;;;;;;19.09;57.21;102675.75;7400217;19;1412;-83
2024/01/31 11:55:48;;;;;;;;;;;;;;;18.83;57.27;102674.56;7402377;19;1276;-83
2024/01/31 11:58:17;;;;;;;;;;;;;;;19.13;56.68;102654.97;7398565;19;1592;-82
2024/01/31 12:00:46;;;;;;;;;;;;;;;19.47;55.80;102652.00;7400186;19;1210;-83
2024/01/31 12:03:14;;;;;;;;;;;;;;;19.39;55.93;102654.28;7400761;19;1568;-83
2024/01/31 12:05:43;;;;;;;;;;;;;;;19.10;56.87;102657.81;7397304;19;1623;-81
2024/01/31 12:08:11;;;;;;;;;;;;;;;18.90;57.56;102664.34;7395217;19;1979;-83
2024/01/31 12:10:40;;;;;;;;;;;;;;;19.17;57.09;102646.66;7393935;19;1934;-81
2024/01/31 12:13:12;;;;;;;;;;;;;;;19.60;55.92;102648.59;7395534;19;1636;-81
2024/01/31 12:15:41;;;;;;;;;;;;;;;19.70;55.82;102651.59;7386878;19;1388;-81
2024/01/31 12:18:10;;;;;;;;;;;;;;;19.42;56.45;102646.06;7399058;19;1822;-80
2024/01/31 12:20:39;;;;;;;;;;;;;;;19.12;57.27;102642.50;7388720;19;1472;-79
2024/01/31 12:23:07;;;;;;;;;;;;;;;18.92;57.97;102641.88;7392758;19;1529;-79
2024/01/31 12:25:36;;;;;;;;;;;;;;;19.24;57.03;102639.13;7394319;19;1575;-73
2024/01/31 12:28:05;;;;;;;;;;;;;;;19.57;56.32;102638.88;7392609;19;1859;-79
2024/01/31 12:30:36;;;;;;;;;;;;;;;19.60;56.20;102637.88;7388946;19;1566;-78
2024/01/31 12:33:05;;;;;;;;;;;;;;;19.27;57.07;102614.78;7390167;19;1541;-79
2024/01/31 12:35:33;;;;;;;;;;;;;;;19.00;57.86;102642.31;7393543;19;1138;-78
2024/01/31 12:38:03;;;;;;;;;;;;;;;18.88;57.94;102624.25;7389989;19;1604;-79
2024/01/31 12:40:31;;;;;;;;;;;;;;;19.20;57.32;102638.44;7390848;19;1592;-79
2024/01/31 12:42:59;;;;;;;;;;;;;;;19.50;56.45;102625.94;7390092;19;1479;-79
2024/01/31 12:45:28;;;;;;;;;;;;;;;19.57;56.07;102622.78;7391574;19;1541;-79
2024/01/31 12:47:59;;;;;;;;;;;;;;;19.27;56.92;102625.50;7389594;19;1842;-78
2024/01/31 12:50:27;;;;;;;;;;;;;;;18.97;57.67;102621.03;7390880;19;1169;-79
2024/01/31 12:52:56;;;;;;;;;;;;;;;18.74;58.16;102626.81;7390040;19;1810;-79
2024/01/31 12:55:24;;;;;;;;;;;;;;;18.88;58.00;102625.13;7390046;19;1573;-79
2024/01/31 12:57:52;;;;;;;;;;;;;;;19.32;57.03;102618.06;7386251;19;1632;-73
2024/01/31 13:00:21;;;;;;;;;;;;;;;19.49;56.62;102622.41;7389807;19;1622;-77